YKA weather

Kamloops Airport
Kamloops, British Columbia, Canada

Public forecast

Using degrees Celsius for public forecast. Weather courtesy of forecast.io.

Current aviation weather report (METAR) for Kamloops Airport

Retrieved 2019/10/16 06:00 UTC (24 minutes ago):

CYKA 160600Z 11012KT 40SM SCT062 BKN080 BKN110 10/04 A2987 RMK SC3AC3AC1 SLP124

Aviation forecast (TAF) for Kamloops Airport

Retrieved 2019/10/16 07:42 UTC (0 seconds ago):

TAF CYKA 160638Z 1607/1619 09012KT P6SM BKN080 TEMPO 1607/1619 P6SM -SHRA OVC060 RMK NXT FCST BY 161300Z